createdAt,value
2016-10-06T00:00:33.864Z,0
2016-10-06T00:01:16.376Z,0
2016-10-06T00:01:58.810Z,0
2016-10-06T00:02:41.564Z,0
2016-10-06T00:03:24.165Z,0
2016-10-06T00:04:06.709Z,0
2016-10-06T00:04:49.285Z,0
2016-10-06T00:05:32.425Z,0
2016-10-06T00:06:16.661Z,0
2016-10-06T00:06:59.151Z,0
2016-10-06T00:07:41.718Z,0
2016-10-06T00:08:34.721Z,0
2016-10-06T00:09:17.320Z,0
2016-10-06T00:09:59.887Z,0
2016-10-06T00:10:42.551Z,0
2016-10-06T00:11:25.325Z,0
2016-10-06T00:12:07.959Z,0
2016-10-06T00:12:50.384Z,0
2016-10-06T00:13:33.108Z,0
2016-10-06T00:14:15.665Z,0
2016-10-06T00:14:58.217Z,0
2016-10-06T00:15:40.883Z,0
2016-10-06T00:16:24.148Z,0
2016-10-06T00:18:22.847Z,0
2016-10-06T00:19:05.374Z,0
2016-10-06T00:19:47.931Z,0
2016-10-06T00:20:30.534Z,0
2016-10-06T00:21:13.123Z,0
2016-10-06T00:21:56.211Z,0
2016-10-06T00:22:39.066Z,0
2016-10-06T00:23:21.672Z,0
2016-10-06T00:24:04.238Z,0
2016-10-06T00:24:46.801Z,0
2016-10-06T00:25:29.299Z,0
2016-10-06T00:26:11.889Z,0
2016-10-06T00:26:54.501Z,0
2016-10-06T00:27:37.045Z,0
2016-10-06T00:28:19.594Z,0
2016-10-06T00:29:02.136Z,0
2016-10-06T00:29:44.712Z,0
2016-10-06T00:30:27.271Z,0
2016-10-06T00:31:09.841Z,0
2016-10-06T00:31:52.427Z,0
2016-10-06T00:32:34.982Z,0
2016-10-06T00:33:17.454Z,0
2016-10-06T00:34:00.104Z,0
2016-10-06T00:34:42.670Z,0
2016-10-06T00:35:25.339Z,0
2016-10-06T00:36:07.945Z,0
2016-10-06T00:36:50.497Z,0
2016-10-06T00:37:33.001Z,0
2016-10-06T00:38:15.533Z,0
2016-10-06T00:38:58.207Z,0
2016-10-06T00:39:40.732Z,0
2016-10-06T00:40:23.306Z,0
2016-10-06T00:41:05.928Z,0
2016-10-06T00:41:49.442Z,0
2016-10-06T00:42:32.003Z,0
2016-10-06T00:43:14.551Z,0
2016-10-06T00:43:57.224Z,0
2016-10-06T00:44:39.821Z,0
2016-10-06T00:45:22.357Z,0
2016-10-06T00:46:04.913Z,0
2016-10-06T00:46:47.242Z,0
2016-10-06T00:47:30.280Z,0
2016-10-06T00:48:12.786Z,0
2016-10-06T00:50:02.220Z,0
2016-10-06T00:50:45.030Z,0
2016-10-06T00:51:27.610Z,0
2016-10-06T00:52:10.446Z,0
2016-10-06T00:52:52.995Z,0
2016-10-06T00:53:35.948Z,0
2016-10-06T00:54:19.074Z,0
2016-10-06T00:55:01.366Z,0
2016-10-06T00:55:43.923Z,0
2016-10-06T00:56:26.585Z,0
2016-10-06T00:57:09.227Z,0
2016-10-06T00:57:52.582Z,0
2016-10-06T00:58:35.224Z,0
2016-10-06T00:59:17.909Z,0
2016-10-06T01:00:00.390Z,0
2016-10-06T01:00:43.297Z,0
2016-10-06T01:01:25.873Z,0
2016-10-06T01:02:08.557Z,0
2016-10-06T01:02:51.137Z,0
2016-10-06T01:03:33.746Z,0
2016-10-06T01:04:16.318Z,0
2016-10-06T01:04:59.001Z,0
2016-10-06T01:05:41.491Z,0
2016-10-06T01:06:24.283Z,0
2016-10-06T01:07:06.783Z,0
2016-10-06T01:07:49.706Z,0
2016-10-06T01:08:32.406Z,0
2016-10-06T01:09:15.205Z,0
2016-10-06T01:09:57.864Z,0
2016-10-06T01:10:40.666Z,0
2016-10-06T01:12:05.995Z,0
2016-10-06T01:12:48.526Z,0
2016-10-06T01:13:31.671Z,0
2016-10-06T01:14:14.330Z,0
2016-10-06T01:14:56.908Z,0
2016-10-06T01:15:39.489Z,0
2016-10-06T01:16:22.262Z,0
2016-10-06T01:17:04.904Z,0
2016-10-06T01:17:47.477Z,0
2016-10-06T01:18:30.053Z,0
2016-10-06T01:19:12.719Z,0
2016-10-06T01:19:55.629Z,0
2016-10-06T01:20:38.286Z,0
2016-10-06T01:21:20.959Z,0
2016-10-06T01:22:03.554Z,0
2016-10-06T01:22:46.586Z,0
2016-10-06T01:23:29.232Z,0
2016-10-06T01:24:11.839Z,0
2016-10-06T01:24:54.592Z,0
2016-10-06T01:25:37.360Z,0
2016-10-06T01:26:20.017Z,0
2016-10-06T01:27:02.797Z,0
2016-10-06T01:27:45.286Z,0
2016-10-06T01:28:28.237Z,0
2016-10-06T01:29:10.853Z,0
2016-10-06T01:29:53.492Z,0
2016-10-06T01:30:36.127Z,0
2016-10-06T01:31:19.369Z,0
2016-10-06T01:32:01.945Z,0
2016-10-06T01:32:45.057Z,0
2016-10-06T01:33:27.185Z,0
2016-10-06T01:34:09.704Z,0
2016-10-06T01:34:52.321Z,0
2016-10-06T01:35:34.857Z,0
2016-10-06T01:36:17.800Z,0
2016-10-06T01:37:00.471Z,0
2016-10-06T01:37:48.430Z,0
2016-10-06T01:38:30.945Z,0
2016-10-06T01:39:13.532Z,0
2016-10-06T01:39:56.225Z,0
2016-10-06T01:40:38.921Z,0
2016-10-06T01:41:21.445Z,0
2016-10-06T01:42:04.017Z,0
2016-10-06T01:42:46.677Z,0
2016-10-06T01:43:29.215Z,0
2016-10-06T01:44:11.875Z,0
2016-10-06T01:44:54.430Z,0
2016-10-06T01:45:36.948Z,0
2016-10-06T01:46:19.570Z,0
2016-10-06T01:47:02.177Z,0
2016-10-06T01:47:44.607Z,0
2016-10-06T01:48:27.360Z,0
2016-10-06T01:49:09.942Z,0
2016-10-06T01:49:52.972Z,0
2016-10-06T01:50:35.588Z,0
2016-10-06T01:51:18.218Z,0
2016-10-06T01:52:00.764Z,0
2016-10-06T01:52:43.312Z,0
2016-10-06T01:53:26.033Z,0
2016-10-06T01:54:08.593Z,0
2016-10-06T01:54:51.159Z,0
2016-10-06T01:55:33.735Z,0
2016-10-06T01:56:16.403Z,0
2016-10-06T01:56:58.956Z,0
2016-10-06T01:57:41.522Z,0
2016-10-06T01:58:24.102Z,0
2016-10-06T01:59:06.709Z,0
2016-10-06T01:59:49.348Z,0
2016-10-06T02:00:31.911Z,0
2016-10-06T02:01:14.287Z,0
2016-10-06T02:01:56.998Z,0
2016-10-06T02:02:39.548Z,0
2016-10-06T02:03:22.122Z,0
2016-10-06T02:04:04.709Z,0
2016-10-06T02:04:47.073Z,0
2016-10-06T02:05:30.572Z,0
2016-10-06T02:06:13.150Z,0
2016-10-06T02:06:55.689Z,0
2016-10-06T02:07:38.280Z,0
2016-10-06T02:08:20.843Z,0
2016-10-06T02:09:03.441Z,0
2016-10-06T02:09:45.988Z,0
2016-10-06T02:10:28.486Z,0
2016-10-06T02:11:11.147Z,0
2016-10-06T02:11:53.835Z,0
2016-10-06T02:12:36.569Z,0
2016-10-06T02:13:19.134Z,0
2016-10-06T02:14:01.759Z,0
2016-10-06T02:14:45.077Z,0
2016-10-06T02:15:26.940Z,0
2016-10-06T02:16:09.487Z,0
2016-10-06T02:16:52.079Z,0
2016-10-06T02:17:34.636Z,0
2016-10-06T02:18:17.215Z,0
2016-10-06T02:18:59.662Z,0
2016-10-06T02:19:42.354Z,0
2016-10-06T02:20:24.916Z,0
2016-10-06T02:21:07.519Z,0
2016-10-06T02:21:50.062Z,0
2016-10-06T02:22:32.636Z,0
2016-10-06T02:23:15.240Z,0
2016-10-06T02:23:57.843Z,0
2016-10-06T02:24:40.413Z,0
2016-10-06T02:25:23.047Z,0
2016-10-06T02:26:05.556Z,0
2016-10-06T02:26:48.187Z,0
2016-10-06T02:27:30.739Z,0
2016-10-06T02:28:13.286Z,0
2016-10-06T02:28:55.895Z,0
2016-10-06T02:29:38.445Z,0
2016-10-06T02:30:21.110Z,0
2016-10-06T02:31:03.650Z,0
2016-10-06T02:31:46.257Z,0
2016-10-06T02:32:28.789Z,0
2016-10-06T02:33:11.359Z,0
2016-10-06T02:34:00.705Z,0
2016-10-06T02:35:42.164Z,0
2016-10-06T02:36:24.663Z,0
2016-10-06T02:37:07.252Z,0
2016-10-06T02:37:49.832Z,0
2016-10-06T02:38:32.262Z,0
2016-10-06T02:39:14.952Z,0
2016-10-06T02:39:57.540Z,0
2016-10-06T02:40:40.032Z,0
2016-10-06T02:41:22.552Z,0
2016-10-06T02:42:05.173Z,0
2016-10-06T02:42:47.731Z,0
2016-10-06T02:43:30.358Z,0
2016-10-06T02:44:12.906Z,0
2016-10-06T02:45:00.367Z,0
2016-10-06T02:45:42.924Z,0
2016-10-06T02:46:25.517Z,0
2016-10-06T02:47:07.950Z,0
2016-10-06T02:47:50.826Z,0
2016-10-06T02:48:33.402Z,0
2016-10-06T02:49:15.965Z,0
2016-10-06T02:49:58.596Z,0
2016-10-06T02:50:41.202Z,0
2016-10-06T02:51:23.732Z,0
2016-10-06T02:52:06.299Z,0
2016-10-06T02:52:48.734Z,0
2016-10-06T02:53:31.564Z,0
2016-10-06T02:54:14.216Z,0
2016-10-06T02:54:56.802Z,0
2016-10-06T02:55:39.393Z,0
2016-10-06T02:56:21.934Z,0
2016-10-06T02:57:04.574Z,0
2016-10-06T02:57:47.076Z,0
2016-10-06T02:58:29.665Z,0
2016-10-06T02:59:12.120Z,0
2016-10-06T02:59:54.831Z,0
2016-10-06T03:00:37.408Z,0
2016-10-06T03:01:20.213Z,0
2016-10-06T03:02:02.824Z,0
2016-10-06T03:02:45.420Z,0
2016-10-06T03:03:28.045Z,0
2016-10-06T03:04:10.691Z,0
2016-10-06T03:04:53.305Z,0
2016-10-06T03:05:35.857Z,0
2016-10-06T03:06:18.453Z,0
2016-10-06T03:07:01.013Z,0
2016-10-06T03:07:43.600Z,0
2016-10-06T03:08:26.205Z,0
2016-10-06T03:09:08.872Z,0
2016-10-06T03:09:51.393Z,0
2016-10-06T03:10:33.855Z,0
2016-10-06T03:11:16.388Z,0
2016-10-06T03:11:58.929Z,0
2016-10-06T03:12:41.530Z,0
2016-10-06T03:13:24.084Z,0
2016-10-06T03:14:06.667Z,0
2016-10-06T03:14:49.256Z,0
2016-10-06T03:15:31.775Z,0
2016-10-06T03:16:14.379Z,0
2016-10-06T03:16:56.950Z,0
2016-10-06T03:17:39.464Z,0
2016-10-06T03:18:21.983Z,0
2016-10-06T03:19:04.504Z,0
2016-10-06T03:19:47.031Z,0
2016-10-06T03:20:29.516Z,0
2016-10-06T03:21:12.067Z,0
2016-10-06T03:21:54.638Z,0
2016-10-06T03:22:37.196Z,0
2016-10-06T03:23:19.747Z,0
2016-10-06T03:24:02.365Z,0
2016-10-06T03:24:44.909Z,0
2016-10-06T03:25:27.454Z,0
2016-10-06T03:26:09.849Z,0
2016-10-06T03:26:52.546Z,0
2016-10-06T03:27:35.189Z,0
2016-10-06T03:28:17.732Z,0
2016-10-06T03:29:00.293Z,0
2016-10-06T03:29:42.811Z,0
2016-10-06T03:30:25.423Z,0
2016-10-06T03:31:07.993Z,0
2016-10-06T03:31:50.502Z,0
2016-10-06T03:32:33.035Z,0
2016-10-06T03:33:15.645Z,0
2016-10-06T03:33:58.165Z,0
2016-10-06T03:34:40.708Z,0
2016-10-06T03:35:23.237Z,0
2016-10-06T03:36:05.792Z,0
2016-10-06T03:36:48.292Z,0
2016-10-06T03:37:30.788Z,0
2016-10-06T03:38:13.310Z,0
2016-10-06T03:38:55.858Z,0
2016-10-06T03:39:38.355Z,0
2016-10-06T03:40:20.897Z,0
2016-10-06T03:41:03.392Z,0
2016-10-06T03:41:45.937Z,0
2016-10-06T03:42:28.475Z,0
2016-10-06T03:43:10.982Z,0
2016-10-06T03:43:53.510Z,0
2016-10-06T03:44:36.024Z,0
2016-10-06T03:45:18.589Z,0
2016-10-06T03:46:01.133Z,0
2016-10-06T03:46:43.742Z,0
2016-10-06T03:47:26.335Z,0
2016-10-06T03:48:08.890Z,0
2016-10-06T03:48:51.399Z,0
2016-10-06T03:49:33.995Z,0
2016-10-06T03:50:16.567Z,0
2016-10-06T03:50:59.094Z,0
2016-10-06T03:51:41.630Z,0
2016-10-06T03:52:24.119Z,0
2016-10-06T03:53:06.630Z,0
2016-10-06T03:53:49.181Z,0
2016-10-06T03:54:31.664Z,0
2016-10-06T03:55:14.200Z,0
2016-10-06T03:55:56.768Z,0
2016-10-06T03:56:39.371Z,0
2016-10-06T03:57:21.906Z,0
2016-10-06T03:58:04.407Z,0
2016-10-06T03:58:47.001Z,0
2016-10-06T03:59:29.531Z,0
2016-10-06T04:00:12.071Z,0
2016-10-06T04:00:54.609Z,0
2016-10-06T04:01:37.122Z,0
2016-10-06T04:02:19.688Z,0
2016-10-06T04:03:02.253Z,0
2016-10-06T04:03:44.771Z,0
2016-10-06T04:04:27.322Z,0
2016-10-06T04:05:09.909Z,0
2016-10-06T04:05:52.293Z,0
2016-10-06T04:06:34.988Z,0
2016-10-06T04:07:17.557Z,0
2016-10-06T04:08:00.134Z,0
2016-10-06T04:08:42.767Z,0
2016-10-06T04:09:25.324Z,0
2016-10-06T04:10:07.821Z,0
2016-10-06T04:10:50.446Z,0
2016-10-06T04:11:33.093Z,0
2016-10-06T04:12:15.714Z,0
2016-10-06T04:12:58.333Z,0
2016-10-06T04:13:40.882Z,0
2016-10-06T04:14:23.412Z,0
2016-10-06T04:15:05.995Z,0
2016-10-06T04:15:48.468Z,0
2016-10-06T04:16:31.191Z,0
2016-10-06T04:17:13.756Z,0
2016-10-06T04:17:56.415Z,0
2016-10-06T04:18:39.384Z,0
2016-10-06T04:19:21.873Z,0
2016-10-06T04:20:04.599Z,0
2016-10-06T04:20:47.116Z,0
2016-10-06T04:21:29.613Z,0
2016-10-06T04:22:12.296Z,0
2016-10-06T04:22:55.732Z,0
2016-10-06T04:23:38.444Z,0
2016-10-06T04:24:21.053Z,0
2016-10-06T04:25:03.575Z,0
2016-10-06T04:25:46.138Z,0
2016-10-06T04:26:29.072Z,0
2016-10-06T04:27:11.961Z,0
2016-10-06T04:27:54.562Z,0
2016-10-06T04:28:37.139Z,0
2016-10-06T04:29:19.728Z,0
2016-10-06T04:30:02.316Z,0
2016-10-06T04:30:44.883Z,0
2016-10-06T04:31:27.485Z,0
2016-10-06T04:32:10.030Z,0
2016-10-06T04:32:52.676Z,0
2016-10-06T04:33:35.450Z,0
2016-10-06T04:34:17.979Z,0
2016-10-06T04:35:00.544Z,0
2016-10-06T04:35:43.059Z,0
2016-10-06T04:36:25.367Z,0
2016-10-06T04:37:08.125Z,0
2016-10-06T04:37:50.605Z,0
2016-10-06T04:38:33.161Z,0
2016-10-06T04:39:15.738Z,0
2016-10-06T04:39:58.265Z,0
2016-10-06T04:40:40.660Z,0
2016-10-06T04:41:23.349Z,0
2016-10-06T04:42:05.960Z,0
2016-10-06T04:42:48.347Z,0
2016-10-06T04:43:31.089Z,0
2016-10-06T04:44:13.655Z,0
2016-10-06T04:44:56.196Z,0
2016-10-06T04:45:38.670Z,0
2016-10-06T04:46:21.297Z,0
2016-10-06T04:47:03.853Z,0
2016-10-06T04:47:46.429Z,0
2016-10-06T04:48:28.947Z,0
2016-10-06T04:49:11.519Z,0
2016-10-06T04:49:54.108Z,0
2016-10-06T04:50:36.598Z,0
2016-10-06T04:51:19.205Z,0
2016-10-06T04:52:01.823Z,0
2016-10-06T04:52:44.418Z,0
2016-10-06T04:53:26.939Z,0
2016-10-06T04:54:09.579Z,0
2016-10-06T04:54:52.092Z,0
2016-10-06T04:55:34.665Z,0
2016-10-06T04:56:17.104Z,0
2016-10-06T04:56:59.711Z,0
2016-10-06T04:57:42.210Z,0
2016-10-06T04:58:24.735Z,0
2016-10-06T04:59:07.270Z,0
2016-10-06T04:59:49.802Z,0
2016-10-06T05:00:32.350Z,0
2016-10-06T05:01:14.891Z,0
2016-10-06T05:01:57.497Z,0
2016-10-06T05:02:40.004Z,0
2016-10-06T05:03:22.527Z,0
2016-10-06T05:04:05.062Z,0
2016-10-06T05:04:47.590Z,0
2016-10-06T05:05:30.152Z,0
2016-10-06T05:06:12.690Z,0
2016-10-06T05:06:55.235Z,0
2016-10-06T05:07:37.813Z,0
2016-10-06T05:08:20.353Z,0
2016-10-06T05:09:03.002Z,0
2016-10-06T05:09:45.567Z,0
2016-10-06T05:10:28.108Z,0
2016-10-06T05:11:10.692Z,0
2016-10-06T05:11:53.312Z,0
2016-10-06T05:12:38.558Z,0
2016-10-06T05:13:21.021Z,0
2016-10-06T05:14:03.723Z,0
2016-10-06T05:14:46.276Z,0
2016-10-06T05:15:28.890Z,0
2016-10-06T05:16:11.412Z,0
2016-10-06T05:16:54.024Z,0
2016-10-06T05:17:36.505Z,0
2016-10-06T05:18:19.561Z,0
2016-10-06T05:19:02.106Z,0
2016-10-06T05:19:44.705Z,0
2016-10-06T05:20:27.289Z,0
2016-10-06T05:21:09.867Z,0
2016-10-06T05:21:52.306Z,0
2016-10-06T05:22:34.907Z,0
2016-10-06T05:23:17.452Z,0
2016-10-06T05:23:59.993Z,0
2016-10-06T05:24:42.635Z,0
2016-10-06T05:25:25.191Z,0
2016-10-06T05:26:07.957Z,0
2016-10-06T05:26:50.534Z,0
2016-10-06T05:27:33.102Z,0
2016-10-06T05:28:15.602Z,0
2016-10-06T05:28:58.173Z,0
2016-10-06T05:29:40.798Z,0
2016-10-06T05:30:23.334Z,0
2016-10-06T05:31:05.888Z,0
2016-10-06T05:31:48.525Z,0
2016-10-06T05:32:31.114Z,0
2016-10-06T05:33:13.698Z,0
2016-10-06T05:33:56.275Z,0
2016-10-06T05:34:38.770Z,0
2016-10-06T05:35:21.379Z,0
2016-10-06T05:36:03.760Z,0
2016-10-06T05:36:46.596Z,0
2016-10-06T05:37:29.163Z,0
2016-10-06T05:38:11.757Z,0
2016-10-06T05:38:54.300Z,0
2016-10-06T05:39:36.906Z,0
2016-10-06T05:40:19.480Z,0
2016-10-06T05:41:02.053Z,0
2016-10-06T05:41:44.674Z,0
2016-10-06T05:42:27.314Z,0
2016-10-06T05:43:09.883Z,0
2016-10-06T05:43:52.509Z,0
2016-10-06T05:44:35.153Z,0
2016-10-06T05:45:17.694Z,0
2016-10-06T05:46:00.266Z,0
2016-10-06T05:46:42.854Z,0
2016-10-06T05:47:25.425Z,0
2016-10-06T05:48:07.937Z,0
2016-10-06T05:48:50.572Z,0
2016-10-06T05:49:33.172Z,0
2016-10-06T05:50:15.771Z,0
2016-10-06T05:50:58.411Z,0
2016-10-06T05:51:40.998Z,0
2016-10-06T05:52:23.594Z,0
2016-10-06T05:53:05.922Z,0
2016-10-06T05:53:48.650Z,0
2016-10-06T05:54:31.266Z,0
2016-10-06T05:55:13.852Z,0
2016-10-06T05:55:56.468Z,0
2016-10-06T05:56:38.926Z,0
2016-10-06T05:57:21.639Z,0
2016-10-06T05:58:04.248Z,0
2016-10-06T05:58:46.886Z,0
2016-10-06T05:59:29.405Z,0
2016-10-06T06:00:11.922Z,0
2016-10-06T06:00:54.619Z,0
2016-10-06T06:01:37.263Z,0
2016-10-06T06:02:19.833Z,0
2016-10-06T06:03:02.471Z,0
2016-10-06T06:03:45.130Z,0
2016-10-06T06:04:27.604Z,0
2016-10-06T06:05:10.296Z,0
2016-10-06T06:05:53.521Z,0
2016-10-06T06:06:36.307Z,0
2016-10-06T06:07:18.815Z,0
2016-10-06T06:08:01.318Z,0
2016-10-06T06:08:43.991Z,0
2016-10-06T06:09:26.551Z,0
2016-10-06T06:10:09.072Z,0
2016-10-06T06:10:51.634Z,0
2016-10-06T06:11:34.214Z,0
2016-10-06T06:12:16.731Z,0
2016-10-06T06:12:59.355Z,0
2016-10-06T06:13:41.894Z,0
2016-10-06T06:14:24.470Z,0
2016-10-06T06:15:07.048Z,0
2016-10-06T06:15:49.640Z,0
2016-10-06T06:16:32.218Z,0
2016-10-06T06:17:14.812Z,0
2016-10-06T06:17:57.401Z,0
2016-10-06T06:18:40.037Z,0
2016-10-06T06:19:22.639Z,0
2016-10-06T06:20:05.170Z,0
2016-10-06T06:20:47.753Z,0
2016-10-06T06:21:30.311Z,0
2016-10-06T06:22:12.941Z,0
2016-10-06T06:22:55.490Z,0
2016-10-06T06:23:38.041Z,0
2016-10-06T06:24:20.620Z,0
2016-10-06T06:25:03.187Z,0
2016-10-06T06:25:45.757Z,0
2016-10-06T06:26:28.163Z,0
2016-10-06T06:27:10.992Z,0
2016-10-06T06:27:53.533Z,0
2016-10-06T06:28:36.119Z,0
2016-10-06T06:29:18.749Z,0
2016-10-06T06:30:01.306Z,0
2016-10-06T06:30:43.811Z,0
2016-10-06T06:31:26.396Z,0
2016-10-06T06:32:09.019Z,0
2016-10-06T06:32:51.630Z,0
2016-10-06T06:33:34.196Z,0
2016-10-06T06:34:16.748Z,0
2016-10-06T06:34:59.330Z,0
2016-10-06T06:35:41.939Z,0
2016-10-06T06:36:24.545Z,0
2016-10-06T06:37:07.130Z,0
2016-10-06T06:37:49.676Z,0
2016-10-06T06:38:32.262Z,0
2016-10-06T06:39:14.849Z,0
2016-10-06T06:39:57.423Z,0
2016-10-06T06:40:39.949Z,0
2016-10-06T06:41:22.520Z,0
2016-10-06T06:42:05.045Z,0
2016-10-06T06:42:47.626Z,0
2016-10-06T06:43:30.237Z,0
2016-10-06T06:44:12.796Z,0
2016-10-06T06:44:55.402Z,0
2016-10-06T06:45:37.924Z,0
2016-10-06T06:46:20.596Z,0
2016-10-06T06:47:03.112Z,0
2016-10-06T06:47:45.730Z,0
2016-10-06T06:48:28.113Z,0
2016-10-06T06:49:10.839Z,0
2016-10-06T06:49:53.431Z,0
2016-10-06T06:50:36.075Z,0
2016-10-06T06:51:18.662Z,0
2016-10-06T06:52:01.187Z,0
2016-10-06T06:52:43.772Z,0
2016-10-06T06:53:26.362Z,0
2016-10-06T06:54:08.906Z,0
2016-10-06T06:54:51.443Z,0
2016-10-06T06:55:34.009Z,0
2016-10-06T06:56:16.648Z,0
2016-10-06T06:56:59.195Z,0
2016-10-06T06:57:41.796Z,0
2016-10-06T06:58:24.426Z,0
2016-10-06T06:59:07.024Z,0
2016-10-06T06:59:49.602Z,0
2016-10-06T07:00:32.120Z,0
2016-10-06T07:01:14.732Z,0
2016-10-06T07:01:57.261Z,0
2016-10-06T07:02:39.893Z,0
2016-10-06T07:03:22.446Z,0
2016-10-06T07:04:04.994Z,0
2016-10-06T07:04:47.616Z,0
2016-10-06T07:05:30.154Z,0
2016-10-06T07:06:12.710Z,0
2016-10-06T07:06:55.307Z,0
2016-10-06T07:07:37.979Z,0
2016-10-06T07:08:20.464Z,0
2016-10-06T07:09:03.965Z,0
2016-10-06T07:09:45.784Z,0
2016-10-06T07:10:28.322Z,0
2016-10-06T07:11:10.761Z,0
2016-10-06T07:11:53.538Z,0
2016-10-06T07:12:36.098Z,0
2016-10-06T07:13:19.107Z,0
2016-10-06T07:14:01.702Z,0
2016-10-06T07:14:44.220Z,0
2016-10-06T07:15:26.773Z,0
2016-10-06T07:16:09.315Z,0
2016-10-06T07:16:51.852Z,0
2016-10-06T07:17:34.508Z,0
2016-10-06T07:18:17.102Z,0
2016-10-06T07:18:59.688Z,0
2016-10-06T07:19:42.261Z,0
2016-10-06T07:20:24.890Z,0
2016-10-06T07:21:07.465Z,0
2016-10-06T07:21:50.065Z,0
2016-10-06T07:22:32.604Z,0
2016-10-06T07:23:15.207Z,0
2016-10-06T07:23:57.833Z,0
2016-10-06T07:24:40.366Z,0
2016-10-06T07:25:22.986Z,0
2016-10-06T07:26:05.564Z,0
2016-10-06T07:26:48.133Z,0
2016-10-06T07:27:30.758Z,0
2016-10-06T07:28:13.350Z,0
2016-10-06T07:28:55.887Z,0
2016-10-06T07:29:38.428Z,0
2016-10-06T07:30:21.945Z,0
2016-10-06T07:31:04.562Z,0
2016-10-06T07:31:47.130Z,0
2016-10-06T07:32:29.814Z,0
2016-10-06T07:33:12.335Z,0
2016-10-06T07:33:55.027Z,0
2016-10-06T07:34:37.817Z,0
2016-10-06T07:35:20.426Z,0
2016-10-06T07:36:03.151Z,0
2016-10-06T07:36:45.827Z,0
2016-10-06T07:37:28.439Z,0
2016-10-06T07:38:11.016Z,0
2016-10-06T07:38:53.668Z,0
2016-10-06T07:39:36.242Z,0
2016-10-06T07:40:18.929Z,0
2016-10-06T07:41:01.338Z,0
2016-10-06T07:41:44.108Z,0
2016-10-06T07:42:26.664Z,0
2016-10-06T07:43:09.188Z,0
2016-10-06T07:43:51.729Z,0
2016-10-06T07:44:34.393Z,0
2016-10-06T07:45:16.946Z,0
2016-10-06T07:45:59.534Z,0
2016-10-06T07:46:42.075Z,0
2016-10-06T07:47:24.650Z,0
2016-10-06T07:48:07.261Z,0
2016-10-06T07:48:49.855Z,0
2016-10-06T07:49:32.404Z,0
2016-10-06T07:50:15.054Z,0
2016-10-06T07:50:57.697Z,0
2016-10-06T07:51:40.263Z,0
2016-10-06T07:52:22.884Z,0
2016-10-06T07:53:05.436Z,0
2016-10-06T07:53:48.004Z,0
2016-10-06T07:54:30.543Z,0
2016-10-06T07:55:13.160Z,0
2016-10-06T07:55:55.736Z,0
2016-10-06T07:56:38.300Z,0
2016-10-06T07:57:20.864Z,0
2016-10-06T07:58:03.474Z,0
2016-10-06T07:58:46.085Z,0
2016-10-06T07:59:28.635Z,0
2016-10-06T08:00:11.201Z,0
2016-10-06T08:00:53.729Z,0
2016-10-06T08:01:36.305Z,0
2016-10-06T08:02:18.862Z,0
2016-10-06T08:03:01.428Z,0
2016-10-06T08:03:43.999Z,0
2016-10-06T08:04:26.612Z,0
2016-10-06T08:05:09.210Z,0
2016-10-06T08:05:51.803Z,0
2016-10-06T08:06:34.419Z,0
2016-10-06T08:07:17.007Z,0
2016-10-06T08:07:59.646Z,0
2016-10-06T08:08:42.211Z,0
2016-10-06T08:09:24.829Z,0
2016-10-06T08:10:55.512Z,0
2016-10-06T08:11:38.113Z,0
2016-10-06T08:12:20.692Z,0
2016-10-06T08:13:03.349Z,0
2016-10-06T08:13:45.907Z,0
2016-10-06T08:14:28.497Z,0
2016-10-06T08:15:11.091Z,0
2016-10-06T08:15:53.708Z,0
2016-10-06T08:16:36.284Z,0
2016-10-06T08:17:19.020Z,0
2016-10-06T08:18:01.636Z,0
2016-10-06T08:18:44.246Z,0
2016-10-06T08:19:26.840Z,0
2016-10-06T08:20:09.434Z,0
2016-10-06T08:20:51.973Z,0
2016-10-06T08:21:34.664Z,0
2016-10-06T08:22:17.256Z,0
2016-10-06T08:22:59.856Z,0
2016-10-06T08:23:42.430Z,0
2016-10-06T08:24:25.040Z,0
2016-10-06T08:25:07.615Z,0
2016-10-06T08:25:50.147Z,0
2016-10-06T08:26:32.724Z,0
2016-10-06T08:27:15.232Z,0
2016-10-06T08:27:57.834Z,0
2016-10-06T08:28:40.364Z,0
2016-10-06T08:29:22.951Z,0
2016-10-06T08:30:05.481Z,0
2016-10-06T08:30:47.945Z,0
2016-10-06T08:31:30.689Z,0
2016-10-06T08:32:13.201Z,0
2016-10-06T08:32:55.779Z,0
2016-10-06T08:33:38.359Z,0
2016-10-06T08:34:20.842Z,0
2016-10-06T08:35:03.567Z,0
2016-10-06T08:35:46.137Z,0
2016-10-06T08:36:28.784Z,0
2016-10-06T08:37:11.354Z,0
2016-10-06T08:37:53.888Z,0
2016-10-06T08:38:36.477Z,0
2016-10-06T08:39:19.021Z,0
2016-10-06T08:40:01.588Z,0
2016-10-06T08:40:44.188Z,0
2016-10-06T08:41:26.770Z,0
2016-10-06T08:42:09.352Z,0
2016-10-06T08:42:51.976Z,0
2016-10-06T08:43:34.599Z,0
2016-10-06T08:44:17.135Z,0
2016-10-06T08:44:59.711Z,0
2016-10-06T08:45:42.303Z,0
2016-10-06T08:46:24.876Z,0
2016-10-06T08:47:07.426Z,0
2016-10-06T08:47:50.009Z,0
2016-10-06T08:48:32.584Z,0
2016-10-06T08:49:15.166Z,0
2016-10-06T08:49:57.735Z,0
2016-10-06T08:50:40.296Z,0
2016-10-06T08:51:22.867Z,0
2016-10-06T08:52:05.451Z,0
2016-10-06T08:52:48.003Z,0
2016-10-06T08:53:30.632Z,0
2016-10-06T08:54:13.145Z,0
2016-10-06T08:54:55.695Z,0
2016-10-06T08:55:38.295Z,5
2016-10-06T08:56:20.910Z,5
2016-10-06T08:57:03.502Z,5
2016-10-06T08:57:45.985Z,5
2016-10-06T08:58:28.688Z,5
2016-10-06T08:59:11.174Z,5
2016-10-06T08:59:53.775Z,5
2016-10-06T09:00:36.459Z,5
2016-10-06T09:01:19.011Z,5
2016-10-06T09:02:01.584Z,5
2016-10-06T09:02:44.142Z,5
2016-10-06T09:03:26.558Z,5
2016-10-06T09:04:09.294Z,5
2016-10-06T09:04:51.913Z,10
2016-10-06T09:05:34.454Z,10
2016-10-06T09:06:17.002Z,10
2016-10-06T09:06:59.640Z,10
2016-10-06T09:07:42.155Z,10
2016-10-06T09:08:24.710Z,10
2016-10-06T09:09:07.317Z,10
2016-10-06T09:09:49.978Z,10
2016-10-06T09:10:32.445Z,10
2016-10-06T09:11:14.941Z,10
2016-10-06T09:11:57.720Z,10
2016-10-06T09:12:40.294Z,10
2016-10-06T09:13:22.746Z,10
2016-10-06T09:14:05.499Z,10
2016-10-06T09:14:48.062Z,15
2016-10-06T09:15:30.531Z,15
2016-10-06T09:16:14.124Z,20
2016-10-06T09:16:56.709Z,20
2016-10-06T09:17:39.303Z,25
2016-10-06T09:18:21.869Z,25
2016-10-06T09:19:04.252Z,20
2016-10-06T09:19:47.123Z,20
2016-10-06T09:20:29.651Z,20
2016-10-06T09:21:12.323Z,15
2016-10-06T09:21:54.933Z,15
2016-10-06T09:22:37.497Z,15
2016-10-06T09:23:20.113Z,15
2016-10-06T09:24:02.693Z,20
2016-10-06T09:24:45.281Z,20
2016-10-06T09:25:27.849Z,20
2016-10-06T09:26:10.409Z,25
2016-10-06T09:26:52.833Z,25
2016-10-06T09:27:35.605Z,30
2016-10-06T09:28:18.164Z,30
2016-10-06T09:29:00.727Z,30
2016-10-06T09:29:43.318Z,30
2016-10-06T09:30:25.903Z,30
2016-10-06T09:31:08.464Z,35
2016-10-06T09:31:51.005Z,30
2016-10-06T09:32:33.602Z,30
2016-10-06T09:33:16.153Z,30
2016-10-06T09:33:58.731Z,30
2016-10-06T09:34:41.294Z,30
2016-10-06T09:35:23.862Z,30
2016-10-06T09:36:06.396Z,35
2016-10-06T09:36:48.958Z,30
2016-10-06T09:37:31.597Z,30
2016-10-06T09:38:14.143Z,30
2016-10-06T09:38:56.722Z,35
2016-10-06T09:39:39.195Z,35
2016-10-06T09:40:21.956Z,35
2016-10-06T09:41:04.564Z,30
2016-10-06T09:41:47.133Z,30
2016-10-06T09:42:29.679Z,30
2016-10-06T09:43:12.300Z,30
2016-10-06T09:43:54.899Z,35
2016-10-06T09:44:37.640Z,35
2016-10-06T09:45:20.279Z,40
2016-10-06T09:46:02.869Z,40
2016-10-06T09:46:45.294Z,45
2016-10-06T09:47:28.032Z,45
2016-10-06T09:48:10.579Z,45
2016-10-06T09:48:53.157Z,45
2016-10-06T09:49:35.765Z,45
2016-10-06T09:50:18.308Z,40
2016-10-06T09:51:00.774Z,40
2016-10-06T09:51:43.488Z,40
2016-10-06T09:52:26.050Z,45
2016-10-06T09:53:08.636Z,50
2016-10-06T09:53:51.258Z,60
2016-10-06T09:54:33.832Z,60
2016-10-06T09:55:16.357Z,60
2016-10-06T09:55:58.989Z,55
2016-10-06T09:56:41.627Z,50
2016-10-06T09:57:24.167Z,50
2016-10-06T09:58:06.721Z,45
2016-10-06T09:58:49.258Z,45
2016-10-06T09:59:31.859Z,50
2016-10-06T10:00:14.611Z,50
2016-10-06T10:00:57.224Z,50
2016-10-06T10:01:39.661Z,50
2016-10-06T10:02:22.370Z,45
2016-10-06T10:03:04.947Z,45
2016-10-06T10:03:47.490Z,45
2016-10-06T10:04:30.056Z,50
2016-10-06T10:05:12.653Z,55
2016-10-06T10:05:55.175Z,55
2016-10-06T10:06:37.743Z,55
2016-10-06T10:07:20.305Z,60
2016-10-06T10:08:02.889Z,60
2016-10-06T10:08:45.470Z,60
2016-10-06T10:09:28.079Z,55
2016-10-06T10:10:10.627Z,55
2016-10-06T10:10:53.206Z,55
2016-10-06T10:11:35.626Z,55
2016-10-06T10:12:18.368Z,55
2016-10-06T10:13:00.894Z,50
2016-10-06T10:13:43.481Z,50
2016-10-06T10:14:25.919Z,50
2016-10-06T10:15:08.629Z,50
2016-10-06T10:15:51.201Z,50
2016-10-06T10:16:33.813Z,55
2016-10-06T10:17:16.349Z,60
2016-10-06T10:17:58.935Z,55
2016-10-06T10:18:41.509Z,55
2016-10-06T10:19:24.093Z,60
2016-10-06T10:20:06.692Z,60
2016-10-06T10:20:49.286Z,60
2016-10-06T10:21:31.809Z,65
2016-10-06T10:22:14.490Z,70
2016-10-06T10:22:57.103Z,65
2016-10-06T10:23:39.671Z,70
2016-10-06T10:24:22.261Z,70
2016-10-06T10:25:04.844Z,80
2016-10-06T10:25:47.389Z,90
2016-10-06T10:26:30.010Z,95
2016-10-06T10:27:12.601Z,90
2016-10-06T10:27:55.217Z,75
2016-10-06T10:28:37.774Z,70
2016-10-06T10:29:20.314Z,65
2016-10-06T10:30:02.877Z,65
2016-10-06T10:30:45.378Z,65
2016-10-06T10:31:27.987Z,60
2016-10-06T10:32:11.061Z,60